sensor_id;sensor_type;location;lat;lon;timestamp;P1;durP1;ratioP1;P2;durP2;ratioP2
6290;SDS011;3178;48.730;8.990;2022-08-19T00:00:07;28.83;;;17.93;;
6290;SDS011;3178;48.730;8.990;2022-08-19T00:02:34;21.27;;;16.33;;
6290;SDS011;3178;48.730;8.990;2022-08-19T00:05:01;23.73;;;16.87;;
6290;SDS011;3178;48.730;8.990;2022-08-19T00:07:27;22.20;;;16.77;;
6290;SDS011;3178;48.730;8.990;2022-08-19T00:09:53;22.90;;;17.67;;
6290;SDS011;3178;48.730;8.990;2022-08-19T00:12:18;26.50;;;17.47;;
6290;SDS011;3178;48.730;8.990;2022-08-19T00:14:44;23.20;;;17.03;;
6290;SDS011;3178;48.730;8.990;2022-08-19T00:17:10;22.90;;;17.10;;
6290;SDS011;3178;48.730;8.990;2022-08-19T00:19:36;23.63;;;18.30;;
6290;SDS011;3178;48.730;8.990;2022-08-19T00:22:02;28.47;;;18.77;;
6290;SDS011;3178;48.730;8.990;2022-08-19T00:24:30;26.13;;;19.87;;
6290;SDS011;3178;48.730;8.990;2022-08-19T00:26:56;27.23;;;18.90;;
6290;SDS011;3178;48.730;8.990;2022-08-19T00:29:22;29.50;;;19.83;;
6290;SDS011;3178;48.730;8.990;2022-08-19T00:31:49;25.53;;;18.73;;
6290;SDS011;3178;48.730;8.990;2022-08-19T00:34:19;23.00;;;18.80;;
6290;SDS011;3178;48.730;8.990;2022-08-19T00:36:45;26.43;;;18.97;;
6290;SDS011;3178;48.730;8.990;2022-08-19T00:39:12;24.67;;;19.30;;
6290;SDS011;3178;48.730;8.990;2022-08-19T00:41:38;26.73;;;19.73;;
6290;SDS011;3178;48.730;8.990;2022-08-19T00:44:09;29.20;;;20.50;;
6290;SDS011;3178;48.730;8.990;2022-08-19T00:46:36;26.00;;;19.80;;
6290;SDS011;3178;48.730;8.990;2022-08-19T00:49:06;31.50;;;20.93;;
6290;SDS011;3178;48.730;8.990;2022-08-19T00:51:50;28.33;;;21.53;;
6290;SDS011;3178;48.730;8.990;2022-08-19T00:54:20;30.83;;;20.90;;
6290;SDS011;3178;48.730;8.990;2022-08-19T00:56:46;26.47;;;20.20;;
6290;SDS011;3178;48.730;8.990;2022-08-19T00:59:13;28.90;;;21.40;;
6290;SDS011;3178;48.730;8.990;2022-08-19T01:01:40;23.90;;;19.07;;
6290;SDS011;3178;48.730;8.990;2022-08-19T01:04:08;25.83;;;19.57;;
6290;SDS011;3178;48.730;8.990;2022-08-19T01:06:33;28.20;;;20.47;;
6290;SDS011;3178;48.730;8.990;2022-08-19T01:09:02;26.87;;;20.47;;
6290;SDS011;3178;48.730;8.990;2022-08-19T01:11:27;26.93;;;21.03;;
6290;SDS011;3178;48.730;8.990;2022-08-19T01:13:55;27.40;;;20.93;;
6290;SDS011;3178;48.730;8.990;2022-08-19T01:16:21;24.70;;;19.30;;
6290;SDS011;3178;48.730;8.990;2022-08-19T01:18:50;24.13;;;19.30;;
6290;SDS011;3178;48.730;8.990;2022-08-19T01:21:17;28.27;;;20.70;;
6290;SDS011;3178;48.730;8.990;2022-08-19T01:23:48;26.73;;;20.97;;
6290;SDS011;3178;48.730;8.990;2022-08-19T01:26:15;28.83;;;22.07;;
6290;SDS011;3178;48.730;8.990;2022-08-19T01:28:46;26.70;;;21.00;;
6290;SDS011;3178;48.730;8.990;2022-08-19T01:31:17;26.40;;;21.10;;
6290;SDS011;3178;48.730;8.990;2022-08-19T01:33:46;25.30;;;20.57;;
6290;SDS011;3178;48.730;8.990;2022-08-19T01:36:14;32.17;;;23.30;;
6290;SDS011;3178;48.730;8.990;2022-08-19T01:38:47;30.93;;;22.47;;
6290;SDS011;3178;48.730;8.990;2022-08-19T01:41:14;34.70;;;23.67;;
6290;SDS011;3178;48.730;8.990;2022-08-19T01:43:43;31.87;;;20.97;;
6290;SDS011;3178;48.730;8.990;2022-08-19T01:46:09;30.40;;;21.03;;
6290;SDS011;3178;48.730;8.990;2022-08-19T01:48:37;34.00;;;23.27;;
6290;SDS011;3178;48.730;8.990;2022-08-19T01:51:04;30.40;;;22.67;;
6290;SDS011;3178;48.730;8.990;2022-08-19T01:53:30;30.30;;;23.10;;
6290;SDS011;3178;48.730;8.990;2022-08-19T01:55:56;29.00;;;21.23;;
6290;SDS011;3178;48.730;8.990;2022-08-19T01:58:23;32.20;;;21.83;;
6290;SDS011;3178;48.730;8.990;2022-08-19T02:00:54;31.40;;;23.83;;
6290;SDS011;3178;48.730;8.990;2022-08-19T02:03:19;33.83;;;23.63;;
6290;SDS011;3178;48.730;8.990;2022-08-19T02:05:45;32.47;;;24.57;;
6290;SDS011;3178;48.730;8.990;2022-08-19T02:08:10;30.97;;;23.90;;
6290;SDS011;3178;48.730;8.990;2022-08-19T02:10:40;30.57;;;21.17;;
6290;SDS011;3178;48.730;8.990;2022-08-19T02:13:07;30.63;;;21.90;;
6290;SDS011;3178;48.730;8.990;2022-08-19T02:15:34;34.67;;;24.10;;
6290;SDS011;3178;48.730;8.990;2022-08-19T02:17:59;30.60;;;23.60;;
6290;SDS011;3178;48.730;8.990;2022-08-19T02:20:25;29.93;;;22.43;;
6290;SDS011;3178;48.730;8.990;2022-08-19T02:22:50;32.07;;;23.37;;
6290;SDS011;3178;48.730;8.990;2022-08-19T02:25:17;30.53;;;22.67;;
6290;SDS011;3178;48.730;8.990;2022-08-19T02:27:43;35.30;;;24.97;;
6290;SDS011;3178;48.730;8.990;2022-08-19T02:30:12;34.47;;;25.60;;
6290;SDS011;3178;48.730;8.990;2022-08-19T02:32:40;31.23;;;23.93;;
6290;SDS011;3178;48.730;8.990;2022-08-19T02:35:06;34.10;;;24.60;;
6290;SDS011;3178;48.730;8.990;2022-08-19T02:37:33;39.23;;;25.37;;
6290;SDS011;3178;48.730;8.990;2022-08-19T02:40:17;30.70;;;22.90;;
6290;SDS011;3178;48.730;8.990;2022-08-19T02:42:43;30.30;;;23.10;;
6290;SDS011;3178;48.730;8.990;2022-08-19T02:45:10;31.00;;;25.23;;
6290;SDS011;3178;48.730;8.990;2022-08-19T02:47:37;36.87;;;24.90;;
6290;SDS011;3178;48.730;8.990;2022-08-19T02:50:03;31.40;;;24.07;;
6290;SDS011;3178;48.730;8.990;2022-08-19T02:52:29;35.87;;;25.30;;
6290;SDS011;3178;48.730;8.990;2022-08-19T02:54:56;33.33;;;25.00;;
6290;SDS011;3178;48.730;8.990;2022-08-19T02:57:22;37.57;;;26.83;;
6290;SDS011;3178;48.730;8.990;2022-08-19T02:59:48;32.53;;;25.43;;
6290;SDS011;3178;48.730;8.990;2022-08-19T03:02:14;33.60;;;26.17;;
6290;SDS011;3178;48.730;8.990;2022-08-19T03:04:40;35.90;;;27.37;;
6290;SDS011;3178;48.730;8.990;2022-08-19T03:07:07;32.27;;;24.77;;
6290;SDS011;3178;48.730;8.990;2022-08-19T03:09:35;36.60;;;25.87;;
6290;SDS011;3178;48.730;8.990;2022-08-19T03:12:03;34.20;;;25.00;;
6290;SDS011;3178;48.730;8.990;2022-08-19T03:14:32;32.37;;;24.03;;
6290;SDS011;3178;48.730;8.990;2022-08-19T03:17:02;34.13;;;25.23;;
6290;SDS011;3178;48.730;8.990;2022-08-19T03:19:29;34.30;;;25.20;;
6290;SDS011;3178;48.730;8.990;2022-08-19T03:21:56;34.07;;;27.30;;
6290;SDS011;3178;48.730;8.990;2022-08-19T03:24:21;32.73;;;25.20;;
6290;SDS011;3178;48.730;8.990;2022-08-19T03:26:49;33.00;;;25.17;;
6290;SDS011;3178;48.730;8.990;2022-08-19T03:29:22;45.80;;;27.50;;
6290;SDS011;3178;48.730;8.990;2022-08-19T03:31:48;35.70;;;25.70;;
6290;SDS011;3178;48.730;8.990;2022-08-19T03:34:17;35.33;;;28.37;;
6290;SDS011;3178;48.730;8.990;2022-08-19T03:36:47;37.50;;;26.47;;
6290;SDS011;3178;48.730;8.990;2022-08-19T03:39:13;41.33;;;28.77;;
6290;SDS011;3178;48.730;8.990;2022-08-19T03:41:40;33.40;;;26.03;;
6290;SDS011;3178;48.730;8.990;2022-08-19T03:44:08;40.77;;;26.90;;
6290;SDS011;3178;48.730;8.990;2022-08-19T03:46:33;35.47;;;27.43;;
6290;SDS011;3178;48.730;8.990;2022-08-19T03:49:00;37.07;;;29.33;;
6290;SDS011;3178;48.730;8.990;2022-08-19T03:51:30;33.13;;;26.50;;
6290;SDS011;3178;48.730;8.990;2022-08-19T03:54:00;38.60;;;28.97;;
6290;SDS011;3178;48.730;8.990;2022-08-19T03:56:27;37.10;;;28.90;;
6290;SDS011;3178;48.730;8.990;2022-08-19T03:58:54;38.23;;;29.00;;
6290;SDS011;3178;48.730;8.990;2022-08-19T04:01:22;37.30;;;27.67;;
6290;SDS011;3178;48.730;8.990;2022-08-19T04:03:51;37.07;;;28.20;;
6290;SDS011;3178;48.730;8.990;2022-08-19T04:06:30;37.93;;;28.43;;
6290;SDS011;3178;48.730;8.990;2022-08-19T04:08:59;42.60;;;29.73;;
6290;SDS011;3178;48.730;8.990;2022-08-19T04:11:31;38.37;;;27.80;;
6290;SDS011;3178;48.730;8.990;2022-08-19T04:14:00;37.90;;;27.90;;
6290;SDS011;3178;48.730;8.990;2022-08-19T04:16:26;39.80;;;29.70;;
6290;SDS011;3178;48.730;8.990;2022-08-19T04:18:53;38.83;;;29.33;;
6290;SDS011;3178;48.730;8.990;2022-08-19T04:21:21;42.00;;;28.13;;
6290;SDS011;3178;48.730;8.990;2022-08-19T04:23:49;35.30;;;26.77;;
6290;SDS011;3178;48.730;8.990;2022-08-19T04:26:16;36.60;;;29.37;;
6290;SDS011;3178;48.730;8.990;2022-08-19T04:28:43;37.27;;;27.70;;
6290;SDS011;3178;48.730;8.990;2022-08-19T04:31:13;41.20;;;29.77;;
6290;SDS011;3178;48.730;8.990;2022-08-19T04:33:43;41.93;;;29.30;;
6290;SDS011;3178;48.730;8.990;2022-08-19T04:36:15;39.03;;;27.80;;
6290;SDS011;3178;48.730;8.990;2022-08-19T04:38:44;39.63;;;30.27;;
6290;SDS011;3178;48.730;8.990;2022-08-19T04:41:09;41.20;;;29.60;;
6290;SDS011;3178;48.730;8.990;2022-08-19T04:43:53;40.80;;;29.53;;
6290;SDS011;3178;48.730;8.990;2022-08-19T04:46:19;40.37;;;29.53;;
6290;SDS011;3178;48.730;8.990;2022-08-19T04:48:45;42.17;;;28.73;;
6290;SDS011;3178;48.730;8.990;2022-08-19T04:51:11;38.60;;;27.60;;
6290;SDS011;3178;48.730;8.990;2022-08-19T04:53:38;38.67;;;30.07;;
6290;SDS011;3178;48.730;8.990;2022-08-19T04:56:07;44.63;;;32.67;;
6290;SDS011;3178;48.730;8.990;2022-08-19T04:58:35;41.07;;;32.97;;
6290;SDS011;3178;48.730;8.990;2022-08-19T05:01:02;37.27;;;28.40;;
6290;SDS011;3178;48.730;8.990;2022-08-19T05:03:29;45.03;;;34.43;;
6290;SDS011;3178;48.730;8.990;2022-08-19T05:05:58;40.43;;;30.23;;
6290;SDS011;3178;48.730;8.990;2022-08-19T05:08:32;44.17;;;30.90;;
6290;SDS011;3178;48.730;8.990;2022-08-19T05:10:58;42.77;;;29.77;;
6290;SDS011;3178;48.730;8.990;2022-08-19T05:13:24;41.40;;;30.03;;
6290;SDS011;3178;48.730;8.990;2022-08-19T05:15:58;43.83;;;29.20;;
6290;SDS011;3178;48.730;8.990;2022-08-19T05:18:24;45.70;;;31.80;;
6290;SDS011;3178;48.730;8.990;2022-08-19T05:21:10;40.50;;;30.70;;
6290;SDS011;3178;48.730;8.990;2022-08-19T05:23:55;46.93;;;30.63;;
6290;SDS011;3178;48.730;8.990;2022-08-19T05:26:21;42.23;;;31.80;;
6290;SDS011;3178;48.730;8.990;2022-08-19T05:28:47;42.03;;;32.63;;
6290;SDS011;3178;48.730;8.990;2022-08-19T05:31:13;44.37;;;30.43;;
6290;SDS011;3178;48.730;8.990;2022-08-19T05:33:38;46.07;;;32.10;;
6290;SDS011;3178;48.730;8.990;2022-08-19T05:36:05;40.70;;;28.97;;
6290;SDS011;3178;48.730;8.990;2022-08-19T05:38:32;43.43;;;32.07;;
6290;SDS011;3178;48.730;8.990;2022-08-19T05:40:58;38.50;;;29.00;;
6290;SDS011;3178;48.730;8.990;2022-08-19T05:43:24;42.90;;;32.57;;
6290;SDS011;3178;48.730;8.990;2022-08-19T05:45:50;38.47;;;30.30;;
6290;SDS011;3178;48.730;8.990;2022-08-19T05:48:15;46.90;;;31.80;;
6290;SDS011;3178;48.730;8.990;2022-08-19T05:50:45;38.07;;;29.07;;
6290;SDS011;3178;48.730;8.990;2022-08-19T05:53:11;37.97;;;29.40;;
6290;SDS011;3178;48.730;8.990;2022-08-19T05:55:38;37.70;;;30.40;;
6290;SDS011;3178;48.730;8.990;2022-08-19T05:58:03;49.00;;;31.07;;
6290;SDS011;3178;48.730;8.990;2022-08-19T06:00:32;36.60;;;28.50;;
6290;SDS011;3178;48.730;8.990;2022-08-19T06:02:58;40.00;;;28.60;;
6290;SDS011;3178;48.730;8.990;2022-08-19T06:05:27;40.53;;;30.60;;
6290;SDS011;3178;48.730;8.990;2022-08-19T06:07:54;40.80;;;31.33;;
6290;SDS011;3178;48.730;8.990;2022-08-19T06:10:20;45.60;;;29.20;;
6290;SDS011;3178;48.730;8.990;2022-08-19T06:12:46;42.53;;;32.33;;
6290;SDS011;3178;48.730;8.990;2022-08-19T06:15:13;41.27;;;30.23;;
6290;SDS011;3178;48.730;8.990;2022-08-19T06:17:39;41.90;;;30.47;;
6290;SDS011;3178;48.730;8.990;2022-08-19T06:20:07;43.63;;;31.27;;
6290;SDS011;3178;48.730;8.990;2022-08-19T06:22:38;49.13;;;30.97;;
6290;SDS011;3178;48.730;8.990;2022-08-19T06:25:06;42.97;;;31.13;;
6290;SDS011;3178;48.730;8.990;2022-08-19T06:27:33;42.00;;;32.13;;
6290;SDS011;3178;48.730;8.990;2022-08-19T06:30:00;42.70;;;30.50;;
6290;SDS011;3178;48.730;8.990;2022-08-19T06:32:26;46.13;;;32.10;;
6290;SDS011;3178;48.730;8.990;2022-08-19T06:34:52;61.57;;;29.93;;
6290;SDS011;3178;48.730;8.990;2022-08-19T06:37:17;37.13;;;29.50;;
6290;SDS011;3178;48.730;8.990;2022-08-19T06:39:43;40.43;;;27.83;;
6290;SDS011;3178;48.730;8.990;2022-08-19T06:42:10;36.30;;;28.70;;
6290;SDS011;3178;48.730;8.990;2022-08-19T06:44:39;42.97;;;29.10;;
6290;SDS011;3178;48.730;8.990;2022-08-19T06:47:06;41.53;;;29.33;;
6290;SDS011;3178;48.730;8.990;2022-08-19T06:49:34;44.70;;;29.20;;
6290;SDS011;3178;48.730;8.990;2022-08-19T06:52:00;45.10;;;27.27;;
6290;SDS011;3178;48.730;8.990;2022-08-19T06:54:26;36.40;;;27.63;;
6290;SDS011;3178;48.730;8.990;2022-08-19T06:56:54;31.40;;;25.23;;
6290;SDS011;3178;48.730;8.990;2022-08-19T06:59:22;36.30;;;27.53;;
6290;SDS011;3178;48.730;8.990;2022-08-19T07:01:52;35.47;;;25.30;;
6290;SDS011;3178;48.730;8.990;2022-08-19T07:04:22;33.30;;;27.20;;
6290;SDS011;3178;48.730;8.990;2022-08-19T07:06:50;36.20;;;25.83;;
6290;SDS011;3178;48.730;8.990;2022-08-19T07:09:23;31.77;;;25.37;;
6290;SDS011;3178;48.730;8.990;2022-08-19T07:11:49;32.63;;;26.90;;
6290;SDS011;3178;48.730;8.990;2022-08-19T07:14:18;32.23;;;25.37;;
6290;SDS011;3178;48.730;8.990;2022-08-19T07:16:45;38.03;;;24.70;;
6290;SDS011;3178;48.730;8.990;2022-08-19T07:19:12;30.27;;;25.47;;
6290;SDS011;3178;48.730;8.990;2022-08-19T07:21:38;27.40;;;22.67;;
6290;SDS011;3178;48.730;8.990;2022-08-19T07:24:03;34.67;;;26.40;;
6290;SDS011;3178;48.730;8.990;2022-08-19T07:26:31;35.50;;;24.23;;
6290;SDS011;3178;48.730;8.990;2022-08-19T07:28:58;34.30;;;25.73;;
6290;SDS011;3178;48.730;8.990;2022-08-19T07:31:26;39.03;;;25.63;;
6290;SDS011;3178;48.730;8.990;2022-08-19T07:33:53;31.37;;;24.40;;
6290;SDS011;3178;48.730;8.990;2022-08-19T07:36:24;34.27;;;23.60;;
6290;SDS011;3178;48.730;8.990;2022-08-19T07:38:56;31.97;;;24.60;;
6290;SDS011;3178;48.730;8.990;2022-08-19T07:41:23;32.40;;;24.67;;
6290;SDS011;3178;48.730;8.990;2022-08-19T07:43:50;33.83;;;22.90;;
6290;SDS011;3178;48.730;8.990;2022-08-19T07:46:17;28.87;;;22.83;;
6290;SDS011;3178;48.730;8.990;2022-08-19T07:48:45;28.80;;;23.47;;
6290;SDS011;3178;48.730;8.990;2022-08-19T07:51:12;32.20;;;24.00;;
6290;SDS011;3178;48.730;8.990;2022-08-19T07:53:39;28.30;;;22.80;;
6290;SDS011;3178;48.730;8.990;2022-08-19T07:56:05;39.10;;;24.40;;
6290;SDS011;3178;48.730;8.990;2022-08-19T07:58:33;30.97;;;22.40;;
6290;SDS011;3178;48.730;8.990;2022-08-19T08:01:02;27.10;;;22.57;;
6290;SDS011;3178;48.730;8.990;2022-08-19T08:03:29;31.53;;;22.77;;
6290;SDS011;3178;48.730;8.990;2022-08-19T08:06:13;29.63;;;21.30;;
6290;SDS011;3178;48.730;8.990;2022-08-19T08:08:58;31.23;;;22.40;;
6290;SDS011;3178;48.730;8.990;2022-08-19T08:17:09;28.20;;;22.93;;
6290;SDS011;3178;48.730;8.990;2022-08-19T08:19:35;32.23;;;22.37;;
6290;SDS011;3178;48.730;8.990;2022-08-19T08:22:02;24.43;;;20.30;;
6290;SDS011;3178;48.730;8.990;2022-08-19T08:24:28;31.43;;;22.30;;
6290;SDS011;3178;48.730;8.990;2022-08-19T08:26:59;31.40;;;22.80;;
6290;SDS011;3178;48.730;8.990;2022-08-19T08:29:26;33.50;;;22.33;;
6290;SDS011;3178;48.730;8.990;2022-08-19T08:31:53;30.43;;;22.30;;
6290;SDS011;3178;48.730;8.990;2022-08-19T08:34:19;25.50;;;19.77;;
6290;SDS011;3178;48.730;8.990;2022-08-19T08:36:45;26.97;;;20.77;;
6290;SDS011;3178;48.730;8.990;2022-08-19T08:39:12;36.83;;;20.70;;
6290;SDS011;3178;48.730;8.990;2022-08-19T08:44:31;27.00;;;22.37;;
6290;SDS011;3178;48.730;8.990;2022-08-19T08:47:17;30.53;;;23.40;;
6290;SDS011;3178;48.730;8.990;2022-08-19T08:49:52;27.23;;;21.47;;
6290;SDS011;3178;48.730;8.990;2022-08-19T08:52:24;27.77;;;20.73;;
6290;SDS011;3178;48.730;8.990;2022-08-19T08:54:54;29.00;;;23.47;;
6290;SDS011;3178;48.730;8.990;2022-08-19T08:57:25;28.63;;;22.73;;
6290;SDS011;3178;48.730;8.990;2022-08-19T08:59:57;27.20;;;20.50;;
6290;SDS011;3178;48.730;8.990;2022-08-19T09:02:28;27.43;;;20.60;;
6290;SDS011;3178;48.730;8.990;2022-08-19T09:04:54;24.33;;;19.63;;
6290;SDS011;3178;48.730;8.990;2022-08-19T09:07:22;27.97;;;19.67;;
6290;SDS011;3178;48.730;8.990;2022-08-19T09:10:38;28.23;;;21.23;;
6290;SDS011;3178;48.730;8.990;2022-08-19T09:13:19;29.50;;;22.20;;
6290;SDS011;3178;48.730;8.990;2022-08-19T09:16:12;27.20;;;19.93;;
6290;SDS011;3178;48.730;8.990;2022-08-19T09:18:51;32.43;;;20.80;;
6290;SDS011;3178;48.730;8.990;2022-08-19T09:21:20;27.50;;;20.60;;
6290;SDS011;3178;48.730;8.990;2022-08-19T09:23:47;27.17;;;22.23;;
6290;SDS011;3178;48.730;8.990;2022-08-19T09:26:14;29.13;;;21.40;;
6290;SDS011;3178;48.730;8.990;2022-08-19T09:28:44;26.60;;;19.63;;
6290;SDS011;3178;48.730;8.990;2022-08-19T09:31:13;34.33;;;18.80;;
6290;SDS011;3178;48.730;8.990;2022-08-19T09:33:40;23.73;;;20.50;;
6290;SDS011;3178;48.730;8.990;2022-08-19T09:36:09;26.07;;;18.13;;
6290;SDS011;3178;48.730;8.990;2022-08-19T09:38:36;29.00;;;20.77;;
6290;SDS011;3178;48.730;8.990;2022-08-19T09:41:06;25.83;;;20.30;;
6290;SDS011;3178;48.730;8.990;2022-08-19T09:43:34;22.80;;;19.23;;
6290;SDS011;3178;48.730;8.990;2022-08-19T09:46:02;24.57;;;19.77;;
6290;SDS011;3178;48.730;8.990;2022-08-19T09:48:34;23.20;;;19.33;;
6290;SDS011;3178;48.730;8.990;2022-08-19T09:51:22;22.97;;;18.00;;
6290;SDS011;3178;48.730;8.990;2022-08-19T09:53:51;27.57;;;19.67;;
6290;SDS011;3178;48.730;8.990;2022-08-19T09:56:19;24.57;;;20.40;;
6290;SDS011;3178;48.730;8.990;2022-08-19T09:58:46;28.33;;;21.17;;
6290;SDS011;3178;48.730;8.990;2022-08-19T10:01:20;26.60;;;19.60;;
6290;SDS011;3178;48.730;8.990;2022-08-19T10:03:52;27.53;;;19.50;;
6290;SDS011;3178;48.730;8.990;2022-08-19T10:06:20;25.87;;;19.50;;
6290;SDS011;3178;48.730;8.990;2022-08-19T10:08:47;21.80;;;17.53;;
6290;SDS011;3178;48.730;8.990;2022-08-19T10:11:14;23.93;;;18.37;;
6290;SDS011;3178;48.730;8.990;2022-08-19T10:13:41;20.57;;;18.37;;
6290;SDS011;3178;48.730;8.990;2022-08-19T10:16:08;22.10;;;16.40;;
6290;SDS011;3178;48.730;8.990;2022-08-19T10:18:39;23.60;;;17.90;;
6290;SDS011;3178;48.730;8.990;2022-08-19T10:23:39;22.33;;;17.47;;
6290;SDS011;3178;48.730;8.990;2022-08-19T10:26:09;20.93;;;15.93;;
6290;SDS011;3178;48.730;8.990;2022-08-19T10:28:36;20.97;;;15.50;;
6290;SDS011;3178;48.730;8.990;2022-08-19T10:31:09;26.80;;;15.60;;
6290;SDS011;3178;48.730;8.990;2022-08-19T10:33:40;19.63;;;14.70;;
6290;SDS011;3178;48.730;8.990;2022-08-19T10:36:07;17.00;;;14.73;;
6290;SDS011;3178;48.730;8.990;2022-08-19T10:38:39;17.23;;;13.40;;
6290;SDS011;3178;48.730;8.990;2022-08-19T10:41:14;18.53;;;12.17;;
6290;SDS011;3178;48.730;8.990;2022-08-19T10:43:44;18.03;;;13.07;;
6290;SDS011;3178;48.730;8.990;2022-08-19T10:46:14;15.13;;;12.60;;
6290;SDS011;3178;48.730;8.990;2022-08-19T10:48:40;14.80;;;11.27;;
6290;SDS011;3178;48.730;8.990;2022-08-19T10:51:07;14.10;;;10.30;;
6290;SDS011;3178;48.730;8.990;2022-08-19T10:53:52;13.80;;;11.60;;
6290;SDS011;3178;48.730;8.990;2022-08-19T10:56:17;21.20;;;13.00;;
6290;SDS011;3178;48.730;8.990;2022-08-19T10:59:02;17.67;;;12.43;;
6290;SDS011;3178;48.730;8.990;2022-08-19T11:01:30;14.27;;;12.00;;
6290;SDS011;3178;48.730;8.990;2022-08-19T11:03:59;15.90;;;10.70;;
6290;SDS011;3178;48.730;8.990;2022-08-19T11:06:26;18.00;;;13.67;;
6290;SDS011;3178;48.730;8.990;2022-08-19T11:08:52;17.30;;;13.70;;
6290;SDS011;3178;48.730;8.990;2022-08-19T11:11:19;31.77;;;13.73;;
6290;SDS011;3178;48.730;8.990;2022-08-19T11:13:46;19.23;;;13.43;;
6290;SDS011;3178;48.730;8.990;2022-08-19T11:16:15;25.77;;;14.00;;
6290;SDS011;3178;48.730;8.990;2022-08-19T11:18:43;16.20;;;13.00;;
6290;SDS011;3178;48.730;8.990;2022-08-19T11:21:15;14.23;;;11.90;;
6290;SDS011;3178;48.730;8.990;2022-08-19T11:23:44;17.80;;;12.50;;
6290;SDS011;3178;48.730;8.990;2022-08-19T11:26:12;17.87;;;11.70;;
6290;SDS011;3178;48.730;8.990;2022-08-19T11:28:39;14.73;;;11.90;;
6290;SDS011;3178;48.730;8.990;2022-08-19T11:31:13;13.50;;;11.20;;
6290;SDS011;3178;48.730;8.990;2022-08-19T11:33:41;14.83;;;11.93;;
6290;SDS011;3178;48.730;8.990;2022-08-19T11:36:08;10.90;;;9.70;;
6290;SDS011;3178;48.730;8.990;2022-08-19T11:38:34;21.83;;;11.90;;
6290;SDS011;3178;48.730;8.990;2022-08-19T11:41:02;18.73;;;11.50;;
6290;SDS011;3178;48.730;8.990;2022-08-19T11:43:30;10.30;;;9.20;;
6290;SDS011;3178;48.730;8.990;2022-08-19T11:45:56;14.90;;;9.97;;
6290;SDS011;3178;48.730;8.990;2022-08-19T11:48:22;11.70;;;8.70;;
6290;SDS011;3178;48.730;8.990;2022-08-19T11:50:49;14.90;;;9.00;;
6290;SDS011;3178;48.730;8.990;2022-08-19T11:53:17;14.10;;;9.03;;
6290;SDS011;3178;48.730;8.990;2022-08-19T11:55:45;13.60;;;8.83;;
6290;SDS011;3178;48.730;8.990;2022-08-19T11:58:14;11.30;;;9.27;;
6290;SDS011;3178;48.730;8.990;2022-08-19T12:00:41;8.53;;;7.17;;
6290;SDS011;3178;48.730;8.990;2022-08-19T12:03:07;12.37;;;9.97;;
6290;SDS011;3178;48.730;8.990;2022-08-19T12:05:33;9.77;;;7.93;;
6290;SDS011;3178;48.730;8.990;2022-08-19T12:08:01;11.93;;;8.67;;
6290;SDS011;3178;48.730;8.990;2022-08-19T12:10:26;12.50;;;8.30;;
6290;SDS011;3178;48.730;8.990;2022-08-19T12:12:52;9.30;;;8.33;;
6290;SDS011;3178;48.730;8.990;2022-08-19T12:15:17;23.17;;;15.30;;
6290;SDS011;3178;48.730;8.990;2022-08-19T12:17:43;12.03;;;8.63;;
6290;SDS011;3178;48.730;8.990;2022-08-19T12:20:09;7.20;;;6.50;;
6290;SDS011;3178;48.730;8.990;2022-08-19T12:22:36;11.33;;;8.63;;
6290;SDS011;3178;48.730;8.990;2022-08-19T12:25:03;10.10;;;7.73;;
6290;SDS011;3178;48.730;8.990;2022-08-19T12:27:30;12.60;;;8.90;;
6290;SDS011;3178;48.730;8.990;2022-08-19T12:29:56;13.27;;;8.00;;
6290;SDS011;3178;48.730;8.990;2022-08-19T12:32:22;10.53;;;7.00;;
6290;SDS011;3178;48.730;8.990;2022-08-19T12:34:49;9.67;;;6.90;;
6290;SDS011;3178;48.730;8.990;2022-08-19T12:37:15;10.23;;;7.53;;
6290;SDS011;3178;48.730;8.990;2022-08-19T12:39:42;11.13;;;7.83;;
6290;SDS011;3178;48.730;8.990;2022-08-19T12:42:09;20.70;;;7.37;;
6290;SDS011;3178;48.730;8.990;2022-08-19T12:44:36;9.10;;;6.50;;
6290;SDS011;3178;48.730;8.990;2022-08-19T12:47:04;9.90;;;6.57;;
6290;SDS011;3178;48.730;8.990;2022-08-19T12:49:31;10.73;;;6.37;;
6290;SDS011;3178;48.730;8.990;2022-08-19T12:51:58;9.30;;;6.97;;
6290;SDS011;3178;48.730;8.990;2022-08-19T12:54:25;10.50;;;7.37;;
6290;SDS011;3178;48.730;8.990;2022-08-19T12:56:51;9.43;;;7.30;;
6290;SDS011;3178;48.730;8.990;2022-08-19T12:59:17;10.20;;;7.10;;
6290;SDS011;3178;48.730;8.990;2022-08-19T13:01:44;11.40;;;7.60;;
6290;SDS011;3178;48.730;8.990;2022-08-19T13:04:09;8.17;;;7.00;;
6290;SDS011;3178;48.730;8.990;2022-08-19T13:06:35;13.33;;;7.53;;
6290;SDS011;3178;48.730;8.990;2022-08-19T13:09:02;9.50;;;6.67;;
6290;SDS011;3178;48.730;8.990;2022-08-19T13:11:28;7.40;;;6.47;;
6290;SDS011;3178;48.730;8.990;2022-08-19T13:13:57;11.00;;;6.73;;
6290;SDS011;3178;48.730;8.990;2022-08-19T13:16:23;6.90;;;6.20;;
6290;SDS011;3178;48.730;8.990;2022-08-19T13:18:49;8.90;;;7.23;;
6290;SDS011;3178;48.730;8.990;2022-08-19T13:21:19;7.47;;;6.50;;
6290;SDS011;3178;48.730;8.990;2022-08-19T13:23:47;13.97;;;6.50;;
6290;SDS011;3178;48.730;8.990;2022-08-19T13:26:13;10.03;;;6.27;;
6290;SDS011;3178;48.730;8.990;2022-08-19T13:28:40;8.30;;;6.80;;
6290;SDS011;3178;48.730;8.990;2022-08-19T13:31:26;8.33;;;7.03;;
6290;SDS011;3178;48.730;8.990;2022-08-19T13:34:13;13.70;;;7.27;;
6290;SDS011;3178;48.730;8.990;2022-08-19T13:36:39;6.77;;;6.00;;
6290;SDS011;3178;48.730;8.990;2022-08-19T13:39:05;8.27;;;7.00;;
6290;SDS011;3178;48.730;8.990;2022-08-19T13:41:33;13.60;;;7.63;;
6290;SDS011;3178;48.730;8.990;2022-08-19T13:43:59;8.10;;;7.13;;
6290;SDS011;3178;48.730;8.990;2022-08-19T13:46:25;9.00;;;7.40;;
6290;SDS011;3178;48.730;8.990;2022-08-19T13:48:52;12.80;;;7.80;;
6290;SDS011;3178;48.730;8.990;2022-08-19T13:51:17;14.07;;;8.37;;
6290;SDS011;3178;48.730;8.990;2022-08-19T13:53:43;10.57;;;8.43;;
6290;SDS011;3178;48.730;8.990;2022-08-19T13:56:10;13.43;;;7.93;;
6290;SDS011;3178;48.730;8.990;2022-08-19T13:58:38;20.50;;;8.83;;
6290;SDS011;3178;48.730;8.990;2022-08-19T14:01:04;10.97;;;8.63;;
6290;SDS011;3178;48.730;8.990;2022-08-19T14:03:31;14.63;;;9.20;;
6290;SDS011;3178;48.730;8.990;2022-08-19T14:05:57;11.40;;;8.80;;
6290;SDS011;3178;48.730;8.990;2022-08-19T14:08:23;10.27;;;8.70;;
6290;SDS011;3178;48.730;8.990;2022-08-19T14:10:49;12.83;;;9.03;;
6290;SDS011;3178;48.730;8.990;2022-08-19T14:13:16;14.40;;;7.93;;
6290;SDS011;3178;48.730;8.990;2022-08-19T14:15:44;10.10;;;9.07;;
6290;SDS011;3178;48.730;8.990;2022-08-19T14:18:11;9.43;;;8.53;;
6290;SDS011;3178;48.730;8.990;2022-08-19T14:20:37;9.90;;;8.90;;
6290;SDS011;3178;48.730;8.990;2022-08-19T14:23:02;8.20;;;7.40;;
6290;SDS011;3178;48.730;8.990;2022-08-19T14:25:30;9.33;;;8.27;;
6290;SDS011;3178;48.730;8.990;2022-08-19T14:27:56;8.50;;;7.60;;
6290;SDS011;3178;48.730;8.990;2022-08-19T14:30:24;9.20;;;8.10;;
6290;SDS011;3178;48.730;8.990;2022-08-19T14:32:52;8.67;;;7.80;;
6290;SDS011;3178;48.730;8.990;2022-08-19T14:35:19;8.90;;;8.10;;
6290;SDS011;3178;48.730;8.990;2022-08-19T14:37:46;9.37;;;8.10;;
6290;SDS011;3178;48.730;8.990;2022-08-19T14:40:14;11.47;;;7.70;;
6290;SDS011;3178;48.730;8.990;2022-08-19T14:42:41;11.30;;;7.93;;
6290;SDS011;3178;48.730;8.990;2022-08-19T14:45:08;9.30;;;8.20;;
6290;SDS011;3178;48.730;8.990;2022-08-19T14:47:34;16.97;;;8.90;;
6290;SDS011;3178;48.730;8.990;2022-08-19T14:50:00;9.97;;;8.03;;
6290;SDS011;3178;48.730;8.990;2022-08-19T14:52:26;9.03;;;8.10;;
6290;SDS011;3178;48.730;8.990;2022-08-19T14:54:52;9.40;;;6.97;;
6290;SDS011;3178;48.730;8.990;2022-08-19T14:57:18;8.17;;;7.37;;
6290;SDS011;3178;48.730;8.990;2022-08-19T14:59:44;9.93;;;8.10;;
6290;SDS011;3178;48.730;8.990;2022-08-19T15:02:10;8.33;;;7.53;;
6290;SDS011;3178;48.730;8.990;2022-08-19T15:04:36;7.97;;;6.70;;
6290;SDS011;3178;48.730;8.990;2022-08-19T15:07:02;9.83;;;7.57;;
6290;SDS011;3178;48.730;8.990;2022-08-19T15:09:29;9.33;;;7.70;;